createdAt,value
2022-11-22T00:01:44.988Z,7.95
2022-11-22T00:04:12.519Z,7.93
2022-11-22T00:06:39.988Z,7.93
2022-11-22T00:11:49.754Z,8.02
2022-11-22T00:14:17.356Z,7.96
2022-11-22T00:16:45.019Z,7.96
2022-11-22T00:19:12.567Z,8.00
2022-11-22T00:21:40.310Z,8.09
2022-11-22T00:24:08.027Z,8.07
2022-11-22T00:26:35.597Z,8.04
2022-11-22T00:29:06.667Z,8.04
2022-11-22T00:31:34.498Z,8.03
2022-11-22T00:34:01.914Z,8.10
2022-11-22T00:36:29.451Z,8.13
2022-11-22T00:38:56.903Z,8.19
2022-11-22T00:41:24.404Z,8.27
2022-11-22T00:43:52.391Z,8.08
2022-11-22T00:46:20.162Z,8.15
2022-11-22T00:48:47.654Z,8.21
2022-11-22T00:51:15.214Z,8.04
2022-11-22T00:53:42.715Z,8.07
2022-11-22T00:56:10.397Z,8.22
2022-11-22T00:58:37.984Z,8.31
2022-11-22T01:01:05.522Z,8.35
2022-11-22T01:03:33.179Z,8.28
2022-11-22T01:06:00.582Z,8.15
2022-11-22T01:08:28.230Z,8.27
2022-11-22T01:10:57.945Z,8.31
2022-11-22T01:13:26.936Z,8.34
2022-11-22T01:15:58.779Z,8.39
2022-11-22T01:18:26.534Z,8.33
2022-11-22T01:20:54.123Z,8.39
2022-11-22T01:23:21.768Z,8.41
2022-11-22T01:28:33.568Z,8.51
2022-11-22T01:31:01.052Z,8.53
2022-11-22T01:33:29.658Z,8.47
2022-11-22T01:35:58.576Z,8.36
2022-11-22T01:38:26.262Z,8.28
2022-11-22T01:40:54.340Z,8.26
2022-11-22T01:43:24.561Z,8.20
2022-11-22T01:45:56.725Z,8.15
2022-11-22T01:51:39.532Z,8.10
2022-11-22T01:54:13.203Z,8.06
2022-11-22T01:56:46.023Z,8.02
2022-11-22T01:59:19.155Z,8.02
2022-11-22T02:01:49.685Z,8.08
2022-11-22T02:04:22.024Z,8.18
2022-11-22T02:07:02.633Z,8.20
2022-11-22T02:09:31.293Z,8.15
2022-11-22T02:12:02.506Z,8.06
2022-11-22T02:14:31.778Z,8.11
2022-11-22T02:16:59.180Z,8.03
2022-11-22T02:19:42.053Z,8.07
2022-11-22T02:22:35.758Z,8.01
2022-11-22T02:25:16.332Z,8.01
2022-11-22T02:27:44.361Z,7.96
2022-11-22T02:30:11.974Z,8.05
2022-11-22T02:32:39.483Z,8.17
2022-11-22T02:35:22.513Z,8.23
2022-11-22T02:38:02.397Z,8.17
2022-11-22T02:40:34.862Z,8.20
2022-11-22T02:43:08.167Z,8.07
2022-11-22T02:45:35.759Z,7.96
2022-11-22T02:48:12.129Z,7.91
2022-11-22T02:50:40.307Z,7.84
2022-11-22T02:53:09.265Z,7.70
2022-11-22T02:55:37.311Z,7.58
2022-11-22T02:58:06.863Z,7.57
2022-11-22T03:00:37.042Z,7.70
2022-11-22T03:03:04.659Z,7.80
2022-11-22T03:05:32.416Z,7.80
2022-11-22T03:07:59.974Z,7.76
2022-11-22T03:10:27.643Z,7.80
2022-11-22T03:12:55.123Z,7.77
2022-11-22T03:15:22.541Z,7.78
2022-11-22T03:17:50.363Z,7.84
2022-11-22T03:20:18.007Z,7.90
2022-11-22T03:22:45.837Z,7.90
2022-11-22T03:25:15.475Z,7.95
2022-11-22T03:27:45.429Z,8.05
2022-11-22T03:30:17.909Z,8.00
2022-11-22T03:32:45.428Z,8.17
2022-11-22T03:35:13.201Z,8.13
2022-11-22T03:37:40.823Z,8.20
2022-11-22T03:40:09.014Z,8.24
2022-11-22T03:42:36.639Z,8.08
2022-11-22T03:45:04.509Z,8.17
2022-11-22T03:47:31.885Z,8.30
2022-11-22T03:49:59.441Z,8.33
2022-11-22T03:52:26.925Z,8.32
2022-11-22T03:54:54.507Z,8.38
2022-11-22T03:57:21.999Z,8.39
2022-11-22T03:59:49.502Z,8.37
2022-11-22T04:02:17.395Z,8.37
2022-11-22T04:04:45.057Z,8.37
2022-11-22T04:07:12.892Z,8.45
2022-11-22T04:09:40.387Z,8.53
2022-11-22T04:12:08.353Z,8.37
2022-11-22T04:14:54.364Z,8.28
2022-11-22T04:17:40.845Z,8.32
2022-11-22T04:20:48.314Z,8.39
2022-11-22T04:23:21.485Z,8.47
2022-11-22T04:25:53.832Z,8.18
2022-11-22T04:28:40.501Z,8.26
2022-11-22T04:31:30.465Z,8.34
2022-11-22T04:33:58.035Z,8.45
2022-11-22T04:36:25.433Z,8.55
2022-11-22T04:38:53.061Z,8.56
2022-11-22T04:41:20.572Z,8.65
2022-11-22T04:44:06.590Z,8.66
2022-11-22T04:46:34.234Z,8.61
2022-11-22T04:52:01.121Z,8.51
2022-11-22T04:54:28.612Z,8.47
2022-11-22T04:56:55.998Z,8.49
2022-11-22T04:59:23.621Z,8.53
2022-11-22T05:01:52.588Z,8.48
2022-11-22T05:04:38.987Z,8.54
2022-11-22T05:07:07.002Z,8.61
2022-11-22T05:09:34.496Z,8.53
2022-11-22T05:12:02.208Z,8.48
2022-11-22T05:14:29.667Z,8.53
2022-11-22T05:16:57.244Z,8.53
2022-11-22T05:19:24.866Z,8.62
2022-11-22T05:21:52.888Z,8.59
2022-11-22T05:24:20.324Z,8.59
2022-11-22T05:26:48.209Z,8.59
2022-11-22T05:29:16.225Z,8.60
2022-11-22T05:31:48.331Z,8.48
2022-11-22T05:34:19.454Z,8.47
2022-11-22T05:36:47.601Z,8.47
2022-11-22T05:39:16.536Z,8.51
2022-11-22T05:41:56.270Z,8.52
2022-11-22T05:44:24.768Z,8.54
2022-11-22T05:46:52.393Z,8.60
2022-11-22T05:49:21.102Z,8.59
2022-11-22T05:51:48.781Z,8.42
2022-11-22T05:54:16.646Z,8.34
2022-11-22T05:56:44.693Z,8.46
2022-11-22T05:59:12.592Z,8.46
2022-11-22T06:01:40.712Z,8.65
2022-11-22T06:04:09.173Z,8.78
2022-11-22T06:09:59.878Z,8.77
2022-11-22T06:12:28.129Z,8.70
2022-11-22T06:14:56.646Z,8.77
2022-11-22T06:17:24.777Z,8.82
2022-11-22T06:19:52.385Z,8.90
2022-11-22T06:22:21.836Z,8.74
2022-11-22T06:24:55.824Z,8.86
2022-11-22T06:27:24.138Z,8.80
2022-11-22T06:29:53.775Z,8.82
2022-11-22T06:32:23.000Z,8.86
2022-11-22T06:34:51.830Z,8.92
2022-11-22T06:37:20.531Z,8.98
2022-11-22T06:39:50.362Z,9.00
2022-11-22T06:42:20.409Z,8.93
2022-11-22T06:44:48.617Z,8.99
2022-11-22T06:47:23.399Z,9.01
2022-11-22T06:49:56.610Z,9.02
2022-11-22T06:52:27.140Z,9.03
2022-11-22T06:54:56.124Z,9.03
2022-11-22T06:57:25.345Z,9.06
2022-11-22T06:59:54.176Z,9.01
2022-11-22T07:02:24.111Z,9.03
2022-11-22T07:07:34.249Z,8.82
2022-11-22T07:10:03.862Z,8.81
2022-11-22T07:12:31.751Z,8.80
2022-11-22T07:14:59.488Z,8.87
2022-11-22T07:17:27.323Z,8.89
2022-11-22T07:19:55.175Z,8.89
2022-11-22T07:22:22.685Z,8.87
2022-11-22T07:24:50.572Z,8.83
2022-11-22T07:27:18.698Z,8.89
2022-11-22T07:29:46.285Z,8.97
2022-11-22T07:32:13.932Z,8.97
2022-11-22T07:34:42.941Z,8.97
2022-11-22T07:37:10.969Z,8.90
2022-11-22T07:39:38.845Z,8.96
2022-11-22T07:42:06.500Z,8.89
2022-11-22T07:44:35.088Z,8.93
2022-11-22T07:47:02.870Z,9.07
2022-11-22T07:49:31.019Z,9.06
2022-11-22T07:52:00.115Z,9.09
2022-11-22T07:54:30.325Z,9.10
2022-11-22T07:56:58.789Z,9.11
2022-11-22T07:59:26.634Z,9.15
2022-11-22T08:01:56.394Z,9.29
2022-11-22T08:04:24.348Z,9.23
2022-11-22T08:06:56.125Z,9.31
2022-11-22T08:09:24.817Z,9.29
2022-11-22T08:14:34.041Z,9.16
2022-11-22T08:17:02.341Z,9.26
2022-11-22T08:19:31.670Z,9.37
2022-11-22T08:22:00.398Z,9.38
2022-11-22T08:24:29.501Z,9.35
2022-11-22T08:26:57.583Z,9.40
2022-11-22T08:29:25.639Z,9.40
2022-11-22T08:31:59.447Z,9.45
2022-11-22T08:34:27.859Z,9.51
2022-11-22T08:36:55.730Z,9.58
2022-11-22T08:39:23.475Z,9.56
2022-11-22T08:41:51.334Z,9.58
2022-11-22T08:44:19.747Z,9.65
2022-11-22T08:46:48.510Z,9.78
2022-11-22T08:49:17.361Z,9.86
2022-11-22T08:51:46.341Z,9.97
2022-11-22T08:54:16.168Z,9.99
2022-11-22T08:56:44.081Z,9.94
2022-11-22T08:59:14.234Z,9.96
2022-11-22T09:01:45.320Z,9.97
2022-11-22T09:04:24.004Z,9.96
2022-11-22T09:09:39.687Z,10.14
2022-11-22T09:12:08.118Z,10.13
2022-11-22T09:14:36.043Z,10.13
2022-11-22T09:17:04.398Z,10.20
2022-11-22T09:19:32.501Z,10.20
2022-11-22T09:22:00.586Z,10.29
2022-11-22T09:24:28.328Z,10.41
2022-11-22T09:26:56.763Z,10.44
2022-11-22T09:29:27.095Z,10.48
2022-11-22T09:31:56.783Z,10.48
2022-11-22T09:34:24.609Z,10.43
2022-11-22T09:36:52.281Z,10.61
2022-11-22T09:39:20.094Z,10.66
2022-11-22T09:42:22.575Z,10.73
2022-11-22T09:45:22.204Z,10.64
2022-11-22T09:48:04.225Z,10.34
2022-11-22T09:50:49.252Z,10.35
2022-11-22T09:53:30.557Z,10.18
2022-11-22T09:56:00.138Z,10.15
2022-11-22T09:58:47.001Z,10.37
2022-11-22T10:01:23.512Z,10.54
2022-11-22T10:04:16.234Z,10.43
2022-11-22T10:06:50.065Z,10.57
2022-11-22T10:09:33.660Z,10.65
2022-11-22T10:12:34.790Z,10.56
2022-11-22T10:15:33.503Z,10.54
2022-11-22T10:18:07.240Z,10.58
2022-11-22T10:20:44.374Z,10.62
2022-11-22T10:23:21.145Z,10.59
2022-11-22T10:25:55.350Z,10.42
2022-11-22T10:28:40.028Z,10.48
2022-11-22T10:31:18.250Z,10.54
2022-11-22T10:33:50.586Z,10.47
2022-11-22T10:36:29.010Z,10.42
2022-11-22T10:39:34.783Z,10.29
2022-11-22T10:42:19.117Z,10.23
2022-11-22T10:45:13.732Z,10.38
2022-11-22T10:47:56.561Z,10.46
2022-11-22T10:50:39.351Z,10.16
2022-11-22T10:53:20.031Z,10.23
2022-11-22T10:56:06.169Z,10.36
2022-11-22T10:58:58.583Z,10.29
2022-11-22T11:01:34.983Z,10.30
2022-11-22T11:04:04.714Z,10.27
2022-11-22T11:07:10.555Z,10.05
2022-11-22T11:10:10.758Z,10.16
2022-11-22T11:12:28.115Z,10.18
2022-11-22T11:15:07.813Z,10.24
2022-11-22T11:17:38.754Z,10.34
2022-11-22T11:20:22.005Z,10.33
2022-11-22T11:25:43.755Z,10.45
2022-11-22T11:28:30.457Z,10.63
2022-11-22T11:31:07.728Z,10.73
2022-11-22T11:33:41.122Z,10.88
2022-11-22T11:36:20.015Z,11.02
2022-11-22T11:39:05.394Z,10.94
2022-11-22T11:41:40.249Z,11.10
2022-11-22T11:44:33.531Z,11.26
2022-11-22T11:47:02.281Z,11.31
2022-11-22T11:49:33.206Z,11.41
2022-11-22T11:55:17.435Z,11.52
2022-11-22T11:57:46.297Z,11.48
2022-11-22T12:00:26.660Z,11.62
2022-11-22T12:03:01.416Z,11.48
2022-11-22T12:05:31.737Z,11.44
2022-11-22T12:08:01.727Z,11.37
2022-11-22T12:10:32.778Z,11.33
2022-11-22T12:13:31.203Z,11.37
2022-11-22T12:16:02.129Z,11.37
2022-11-22T12:18:58.716Z,11.46
2022-11-22T12:21:50.825Z,11.52
2022-11-22T12:25:16.980Z,11.49
2022-11-22T12:27:25.859Z,11.67
2022-11-22T12:29:54.094Z,11.49
2022-11-22T12:32:28.397Z,11.12
2022-11-22T12:35:03.592Z,11.14
2022-11-22T12:37:44.344Z,11.30
2022-11-22T12:40:32.208Z,11.37
2022-11-22T12:43:05.794Z,11.33
2022-11-22T12:45:40.078Z,11.17
2022-11-22T12:48:19.045Z,11.35
2022-11-22T12:53:46.567Z,11.36
2022-11-22T12:56:33.413Z,11.14
2022-11-22T12:59:12.187Z,11.16
2022-11-22T13:01:58.617Z,11.04
2022-11-22T13:04:48.744Z,10.93
2022-11-22T13:07:28.031Z,10.90
2022-11-22T13:10:16.598Z,10.88
2022-11-22T13:12:46.695Z,11.12
2022-11-22T13:15:19.473Z,11.30
2022-11-22T13:17:50.542Z,11.35
2022-11-22T13:20:25.863Z,11.42
2022-11-22T13:23:15.345Z,11.25
2022-11-22T13:25:58.481Z,11.26
2022-11-22T13:28:33.455Z,11.16
2022-11-22T13:31:07.213Z,11.34
2022-11-22T13:33:37.381Z,11.22
2022-11-22T13:36:39.086Z,11.31
2022-11-22T13:39:19.452Z,11.33
2022-11-22T13:42:03.010Z,11.34
2022-11-22T13:44:34.116Z,11.37
2022-11-22T13:47:35.429Z,11.19
2022-11-22T13:50:23.066Z,11.19
2022-11-22T13:52:52.458Z,11.16
2022-11-22T13:55:35.891Z,11.38
2022-11-22T13:58:26.125Z,11.27
2022-11-22T14:00:57.809Z,11.18
2022-11-22T14:03:41.133Z,11.28
2022-11-22T14:06:30.056Z,11.33
2022-11-22T14:09:22.988Z,11.47
2022-11-22T14:12:21.441Z,11.58
2022-11-22T14:15:09.054Z,11.61
2022-11-22T14:18:15.359Z,11.62
2022-11-22T14:21:07.506Z,11.57
2022-11-22T14:23:50.729Z,11.64
2022-11-22T14:26:18.198Z,11.68
2022-11-22T14:29:09.956Z,11.71
2022-11-22T14:31:38.129Z,11.53
2022-11-22T14:34:24.121Z,11.55
2022-11-22T14:37:14.891Z,11.54
2022-11-22T14:39:45.357Z,11.62
2022-11-22T14:42:41.278Z,11.43
2022-11-22T14:45:11.810Z,11.34
2022-11-22T14:47:47.996Z,11.40
2022-11-22T14:50:39.232Z,11.35
2022-11-22T14:53:18.854Z,11.39
2022-11-22T14:55:49.463Z,11.30
2022-11-22T14:58:24.795Z,11.35
2022-11-22T15:01:15.350Z,11.13
2022-11-22T15:03:48.994Z,10.94
2022-11-22T15:09:20.800Z,10.83
2022-11-22T15:09:52.239Z,10.78
2022-11-22T15:12:56.613Z,10.66
2022-11-22T15:59:43.391Z,10.77
2022-11-22T16:02:20.240Z,10.77
2022-11-22T16:06:06.185Z,10.77
2022-11-22T16:07:43.649Z,10.79
2022-11-22T16:10:33.443Z,10.84
2022-11-22T16:13:19.330Z,10.97
2022-11-22T16:16:12.869Z,11.09
2022-11-22T16:18:42.383Z,11.13
2022-11-22T16:21:12.750Z,11.17
2022-11-22T16:23:41.859Z,11.15
2022-11-22T16:26:19.283Z,11.12
2022-11-22T16:31:32.624Z,11.06
2022-11-22T16:34:00.264Z,11.11
2022-11-22T16:36:32.348Z,11.03
2022-11-22T16:38:59.946Z,11.12
2022-11-22T16:41:29.684Z,11.03
2022-11-22T16:44:01.051Z,10.94
2022-11-22T16:46:28.881Z,11.02
2022-11-22T16:48:57.161Z,10.96
2022-11-22T16:51:30.529Z,11.01
2022-11-22T16:54:00.509Z,10.77
2022-11-22T16:56:30.045Z,10.73
2022-11-22T16:58:58.527Z,10.88
2022-11-22T17:01:32.963Z,10.84
2022-11-22T17:04:03.059Z,10.91
2022-11-22T17:06:31.664Z,11.08
2022-11-22T17:09:00.601Z,11.17
2022-11-22T17:11:31.540Z,11.04
2022-11-22T17:14:00.255Z,11.10
2022-11-22T17:16:27.882Z,11.11
2022-11-22T17:18:55.467Z,11.03
2022-11-22T17:21:35.854Z,10.98
2022-11-22T17:24:19.274Z,11.00
2022-11-22T17:26:47.277Z,10.98
2022-11-22T17:29:35.230Z,10.89
2022-11-22T17:32:04.198Z,10.94
2022-11-22T17:34:31.813Z,10.95
2022-11-22T17:36:59.446Z,10.92
2022-11-22T17:39:26.961Z,10.85
2022-11-22T17:41:54.506Z,10.87
2022-11-22T17:44:22.904Z,10.85
2022-11-22T17:46:50.484Z,10.80
2022-11-22T17:49:17.857Z,10.88
2022-11-22T17:51:47.172Z,10.87
2022-11-22T17:54:14.679Z,10.95
2022-11-22T17:56:42.125Z,11.00
2022-11-22T17:59:09.556Z,10.76
2022-11-22T18:01:37.536Z,10.80
2022-11-22T18:04:05.086Z,10.80
2022-11-22T18:06:32.601Z,10.82
2022-11-22T18:09:01.206Z,10.68
2022-11-22T18:11:28.787Z,10.78
2022-11-22T18:13:56.218Z,10.90
2022-11-22T18:16:28.686Z,10.77
2022-11-22T18:18:57.790Z,10.86
2022-11-22T18:21:29.671Z,10.77
2022-11-22T18:23:59.224Z,10.56
2022-11-22T18:26:42.993Z,10.56
2022-11-22T18:32:01.296Z,10.33
2022-11-22T18:34:29.688Z,10.27
2022-11-22T18:37:05.095Z,10.33
2022-11-22T18:39:42.021Z,10.27
2022-11-22T18:42:13.922Z,10.26
2022-11-22T18:44:41.519Z,10.27
2022-11-22T18:47:09.310Z,10.22
2022-11-22T18:49:37.185Z,10.25
2022-11-22T18:54:52.619Z,10.26
2022-11-22T18:57:19.988Z,10.16
2022-11-22T18:59:47.512Z,10.25
2022-11-22T19:02:14.986Z,10.35
2022-11-22T19:04:42.466Z,10.38
2022-11-22T19:07:10.043Z,10.42
2022-11-22T19:09:37.660Z,10.26
2022-11-22T19:12:05.338Z,10.35
2022-11-22T19:14:33.121Z,10.36
2022-11-22T19:17:00.916Z,10.40
2022-11-22T19:19:32.369Z,10.42
2022-11-22T19:22:00.799Z,10.45
2022-11-22T19:24:29.358Z,10.49
2022-11-22T19:26:57.089Z,10.26
2022-11-22T19:29:25.329Z,10.29
2022-11-22T19:31:52.850Z,10.30
2022-11-22T19:34:20.437Z,10.33
2022-11-22T19:36:47.884Z,10.46
2022-11-22T19:39:15.913Z,10.52
2022-11-22T19:41:45.071Z,10.42
2022-11-22T19:44:12.801Z,10.47
2022-11-22T19:46:41.693Z,10.51
2022-11-22T19:49:09.538Z,10.56
2022-11-22T19:51:37.340Z,10.57
2022-11-22T19:54:05.710Z,10.58
2022-11-22T19:56:35.964Z,10.62
2022-11-22T19:59:05.832Z,10.66
2022-11-22T20:01:34.895Z,10.62
2022-11-22T20:04:06.192Z,10.57
2022-11-22T20:06:35.813Z,10.41
2022-11-22T20:09:11.215Z,10.54
2022-11-22T20:11:43.161Z,10.59
2022-11-22T20:14:10.886Z,10.63
2022-11-22T20:16:43.030Z,10.56
2022-11-22T20:19:12.663Z,10.66
2022-11-22T20:21:40.333Z,10.71
2022-11-22T20:24:08.213Z,10.71
2022-11-22T20:26:36.057Z,10.75
2022-11-22T20:29:24.055Z,10.62
2022-11-22T20:31:51.617Z,10.68
2022-11-22T20:34:21.001Z,10.72
2022-11-22T20:36:48.764Z,10.66
2022-11-22T20:39:16.241Z,10.68
2022-11-22T20:41:43.691Z,10.54
2022-11-22T20:44:14.745Z,10.51
2022-11-22T20:46:42.860Z,10.65
2022-11-22T20:49:10.303Z,10.69
2022-11-22T20:51:40.082Z,10.78
2022-11-22T20:54:08.613Z,10.76
2022-11-22T20:56:37.679Z,10.70
2022-11-22T20:59:05.490Z,10.55
2022-11-22T21:01:33.303Z,10.73
2022-11-22T21:06:42.237Z,10.72
2022-11-22T21:09:09.858Z,10.80
2022-11-22T21:11:39.102Z,10.85
2022-11-22T21:14:06.610Z,10.92
2022-11-22T21:16:34.199Z,10.99
2022-11-22T21:19:05.266Z,11.07
2022-11-22T21:21:35.927Z,11.01
2022-11-22T21:24:05.443Z,11.02
2022-11-22T21:26:34.175Z,11.07
2022-11-22T21:29:03.530Z,11.00
2022-11-22T21:31:31.267Z,11.00
2022-11-22T21:33:58.684Z,10.81
2022-11-22T21:36:26.601Z,10.76
2022-11-22T21:38:54.214Z,10.81
2022-11-22T21:46:53.031Z,10.91
2022-11-22T21:49:20.501Z,10.95
2022-11-22T21:51:48.707Z,10.95
2022-11-22T21:54:16.087Z,10.87
2022-11-22T21:56:43.917Z,10.85
2022-11-22T21:59:11.929Z,10.85
2022-11-22T22:01:41.301Z,10.85
2022-11-22T22:04:08.892Z,10.88
2022-11-22T22:06:36.331Z,10.81
2022-11-22T22:09:03.871Z,10.85
2022-11-22T22:11:31.466Z,10.76
2022-11-22T22:13:59.236Z,10.62
2022-11-22T22:16:26.741Z,10.62
2022-11-22T22:18:54.832Z,10.68
2022-11-22T22:21:22.587Z,10.44
2022-11-22T22:23:50.307Z,10.55
2022-11-22T22:26:18.239Z,10.64
2022-11-22T22:28:46.230Z,10.72
2022-11-22T22:31:24.017Z,10.66
2022-11-22T22:33:54.824Z,10.73
2022-11-22T22:36:23.621Z,10.65
2022-11-22T22:38:51.225Z,10.57
2022-11-22T22:41:18.806Z,10.55
2022-11-22T22:46:31.015Z,10.82
2022-11-22T22:49:00.139Z,10.75
2022-11-22T22:51:32.646Z,10.85
2022-11-22T22:56:45.318Z,10.84
2022-11-22T22:59:12.851Z,10.80
2022-11-22T23:01:40.351Z,10.91
2022-11-22T23:04:07.826Z,10.95
2022-11-22T23:06:37.412Z,10.81
2022-11-22T23:09:07.374Z,10.73
2022-11-22T23:11:54.233Z,10.71
2022-11-22T23:14:24.270Z,10.86
2022-11-22T23:16:57.349Z,10.81
2022-11-22T23:19:26.339Z,10.92
2022-11-22T23:21:54.232Z,10.97
2022-11-22T23:24:21.942Z,11.04
2022-11-22T23:26:49.534Z,10.95
2022-11-22T23:29:17.218Z,10.87
2022-11-22T23:31:44.609Z,10.92
2022-11-22T23:34:12.588Z,11.03
2022-11-22T23:36:41.123Z,11.04
2022-11-22T23:39:09.497Z,11.00
2022-11-22T23:41:37.023Z,10.91
2022-11-22T23:44:04.648Z,10.90
2022-11-22T23:46:32.310Z,10.94
2022-11-22T23:49:01.872Z,11.03
2022-11-22T23:51:31.276Z,11.06
2022-11-22T23:54:01.495Z,11.11
2022-11-22T23:56:31.831Z,11.00
2022-11-22T23:59:00.594Z,11.06
